createdAt,value
2018-06-25T00:00:18.189Z,12.90
2018-06-25T00:02:46.616Z,12.90
2018-06-25T00:05:15.071Z,12.90
2018-06-25T00:07:43.512Z,12.90
2018-06-25T00:12:40.345Z,13.00
2018-06-25T00:15:08.964Z,13.00
2018-06-25T00:17:37.392Z,13.00
2018-06-25T00:22:34.060Z,13.00
2018-06-25T00:25:02.507Z,13.00
2018-06-25T00:27:30.913Z,12.90
2018-06-25T00:29:59.604Z,12.90
2018-06-25T00:32:27.999Z,13.00
2018-06-25T00:34:56.349Z,12.90
2018-06-25T00:37:24.823Z,12.90
2018-06-25T00:39:53.232Z,12.90
2018-06-25T00:44:50.261Z,12.90
2018-06-25T00:47:18.634Z,12.80
2018-06-25T00:49:47.032Z,12.80
2018-06-25T00:52:15.500Z,12.80
2018-06-25T00:57:12.225Z,12.80
2018-06-25T00:59:49.788Z,12.80
2018-06-25T01:02:18.581Z,12.80
2018-06-25T01:04:47.167Z,12.80
2018-06-25T01:07:15.879Z,12.80
2018-06-25T01:09:44.293Z,12.80
2018-06-25T01:12:12.965Z,12.80
2018-06-25T01:17:10.972Z,12.70
2018-06-25T01:19:39.452Z,12.70
2018-06-25T01:22:09.216Z,12.70
2018-06-25T01:24:37.980Z,12.60
2018-06-25T01:29:38.138Z,12.60
2018-06-25T01:32:06.573Z,12.60
2018-06-25T01:34:35.065Z,12.60
2018-06-25T01:37:03.740Z,12.60
2018-06-25T01:39:32.122Z,12.60
2018-06-25T01:42:00.856Z,12.60
2018-06-25T01:44:29.504Z,12.60
2018-06-25T01:46:58.111Z,12.70
2018-06-25T01:49:26.740Z,12.70
2018-06-25T01:51:55.168Z,12.70
2018-06-25T01:54:23.608Z,12.70
2018-06-25T01:56:52.220Z,12.70
2018-06-25T01:59:20.601Z,12.80
2018-06-25T02:01:49.037Z,12.80
2018-06-25T02:04:17.608Z,12.80
2018-06-25T02:06:46.083Z,12.90
2018-06-25T02:09:14.544Z,12.90
2018-06-25T02:11:42.989Z,12.90
2018-06-25T02:14:11.384Z,13.00
2018-06-25T02:16:39.965Z,13.00
2018-06-25T02:19:08.534Z,13.00
2018-06-25T02:21:36.939Z,13.10
2018-06-25T02:24:05.647Z,13.00
2018-06-25T02:26:34.076Z,13.00
2018-06-25T02:29:02.508Z,13.10
2018-06-25T02:31:30.954Z,13.10
2018-06-25T02:33:59.341Z,13.10
2018-06-25T02:36:27.732Z,13.10
2018-06-25T02:38:56.340Z,13.10
2018-06-25T02:41:24.707Z,13.10
2018-06-25T02:43:53.076Z,13.10
2018-06-25T02:46:21.989Z,13.10
2018-06-25T02:48:50.417Z,13.10
2018-06-25T02:51:19.025Z,13.10
2018-06-25T02:53:47.672Z,13.10
2018-06-25T02:56:16.106Z,13.10
2018-06-25T02:58:44.490Z,13.10
2018-06-25T03:01:13.064Z,13.10
2018-06-25T03:03:41.440Z,13.10
2018-06-25T03:06:09.809Z,13.10
2018-06-25T03:08:38.421Z,13.10
2018-06-25T03:11:06.833Z,13.10
2018-06-25T03:13:35.332Z,13.10
2018-06-25T03:16:03.885Z,13.10
2018-06-25T03:18:32.264Z,13.10
2018-06-25T03:25:57.077Z,13.10
2018-06-25T03:28:26.085Z,13.10
2018-06-25T03:30:54.656Z,13.10
2018-06-25T03:33:23.140Z,13.10
2018-06-25T03:35:51.668Z,13.10
2018-06-25T03:38:20.184Z,13.10
2018-06-25T03:40:48.890Z,13.20
2018-06-25T03:43:17.503Z,13.20
2018-06-25T03:45:46.137Z,13.30
2018-06-25T03:48:14.564Z,13.30
2018-06-25T03:50:43.437Z,13.30
2018-06-25T03:53:11.933Z,13.40
2018-06-25T03:55:40.320Z,13.40
2018-06-25T03:58:08.753Z,13.40
2018-06-25T04:00:37.197Z,13.50
2018-06-25T04:03:06.025Z,13.50
2018-06-25T04:05:34.428Z,13.50
2018-06-25T04:10:31.084Z,13.60
2018-06-25T04:12:59.689Z,13.60
2018-06-25T04:15:28.074Z,13.70
2018-06-25T04:17:56.453Z,13.70
2018-06-25T04:20:25.136Z,13.70
2018-06-25T04:22:53.537Z,13.80
2018-06-25T04:25:21.929Z,13.80
2018-06-25T04:27:50.630Z,13.90
2018-06-25T04:30:19.173Z,13.90
2018-06-25T04:32:47.574Z,14.00
2018-06-25T04:35:16.193Z,14.00
2018-06-25T04:37:44.581Z,14.10
2018-06-25T04:40:13.547Z,14.10
2018-06-25T04:42:42.208Z,14.10
2018-06-25T04:45:10.836Z,14.20
2018-06-25T04:47:39.258Z,14.20
2018-06-25T04:50:07.941Z,14.30
2018-06-25T04:52:36.404Z,14.30
2018-06-25T04:55:04.787Z,14.30
2018-06-25T04:57:33.245Z,14.30
2018-06-25T05:00:01.932Z,14.40
2018-06-25T05:02:30.390Z,14.40
2018-06-25T05:04:58.807Z,14.40
2018-06-25T05:07:27.219Z,14.40
2018-06-25T05:09:56.023Z,14.40
2018-06-25T05:12:24.413Z,14.40
2018-06-25T05:14:52.784Z,14.50
2018-06-25T05:17:21.185Z,14.50
2018-06-25T05:19:49.581Z,14.50
2018-06-25T05:22:18.328Z,14.60
2018-06-25T05:27:15.105Z,14.60
2018-06-25T05:29:43.837Z,14.70
2018-06-25T05:32:12.224Z,14.70
2018-06-25T05:34:40.621Z,14.70
2018-06-25T05:37:09.066Z,14.70
2018-06-25T05:39:37.449Z,14.70
2018-06-25T05:42:06.740Z,14.70
2018-06-25T05:44:35.155Z,14.80
2018-06-25T05:47:03.528Z,14.80
2018-06-25T05:49:32.183Z,14.80
2018-06-25T05:52:00.571Z,14.80
2018-06-25T05:54:28.934Z,14.80
2018-06-25T05:56:57.529Z,14.90
2018-06-25T05:59:25.957Z,14.90
2018-06-25T06:01:54.340Z,14.90
2018-06-25T06:04:22.750Z,15.00
2018-06-25T06:06:51.221Z,15.00
2018-06-25T06:09:19.852Z,15.10
2018-06-25T06:11:48.261Z,15.20
2018-06-25T06:14:16.682Z,15.30
2018-06-25T06:16:45.340Z,15.20
2018-06-25T06:19:13.898Z,15.30
2018-06-25T06:21:42.301Z,15.30
2018-06-25T06:26:38.958Z,15.50
2018-06-25T06:29:07.436Z,15.50
2018-06-25T06:34:04.254Z,15.60
2018-06-25T06:36:32.637Z,15.70
2018-06-25T06:39:01.184Z,15.70
2018-06-25T06:41:29.641Z,15.70
2018-06-25T06:43:58.025Z,15.80
2018-06-25T06:46:26.644Z,15.80
2018-06-25T06:48:55.113Z,15.90
2018-06-25T06:51:23.667Z,15.90
2018-06-25T06:53:52.329Z,15.90
2018-06-25T06:56:20.696Z,15.90
2018-06-25T06:58:49.090Z,15.90
2018-06-25T07:01:17.643Z,15.90
2018-06-25T07:03:46.005Z,15.90
2018-06-25T07:06:14.365Z,15.80
2018-06-25T07:08:43.201Z,15.80
2018-06-25T07:11:11.577Z,15.80
2018-06-25T07:13:39.964Z,15.80
2018-06-25T07:16:08.469Z,15.90
2018-06-25T07:18:36.885Z,15.90
2018-06-25T07:21:05.445Z,14.60
2018-06-25T07:23:34.001Z,15.80
2018-06-25T07:26:02.668Z,15.80
2018-06-25T07:28:31.056Z,15.70
2018-06-25T07:30:59.640Z,15.70
2018-06-25T07:33:28.105Z,15.70
2018-06-25T07:35:56.493Z,15.70
2018-06-25T07:38:24.957Z,15.80
2018-06-25T07:40:53.454Z,15.80
2018-06-25T07:43:21.976Z,15.90
2018-06-25T07:45:50.604Z,15.90
2018-06-25T07:48:18.985Z,15.90
2018-06-25T07:50:47.403Z,15.90
2018-06-25T07:55:44.149Z,15.90
2018-06-25T07:58:12.536Z,16.00
2018-06-25T08:00:41.152Z,15.90
2018-06-25T08:03:09.521Z,16.00
2018-06-25T08:05:37.996Z,15.90
2018-06-25T08:08:06.607Z,15.90
2018-06-25T08:10:35.304Z,16.00
2018-06-25T08:13:03.729Z,16.00
2018-06-25T08:15:32.280Z,16.00
2018-06-25T08:18:00.665Z,16.00
2018-06-25T08:20:29.247Z,15.90
2018-06-25T08:22:57.881Z,15.80
2018-06-25T08:25:26.413Z,15.80
2018-06-25T08:30:23.516Z,15.80
2018-06-25T08:32:52.456Z,15.80
2018-06-25T08:35:21.097Z,15.90
2018-06-25T08:37:49.644Z,15.90
2018-06-25T08:40:18.129Z,16.00
2018-06-25T08:42:46.793Z,16.00
2018-06-25T08:45:16.799Z,16.10
2018-06-25T08:47:45.718Z,16.10
2018-06-25T08:50:15.272Z,16.10
2018-06-25T08:52:44.553Z,16.20
2018-06-25T08:55:13.005Z,16.30
2018-06-25T08:57:41.755Z,16.40
2018-06-25T09:00:10.270Z,16.40
2018-06-25T09:02:39.757Z,16.40
2018-06-25T09:05:08.503Z,16.40
2018-06-25T09:07:37.665Z,16.30
2018-06-25T09:10:06.066Z,16.30
2018-06-25T09:12:34.526Z,16.30
2018-06-25T09:15:03.381Z,16.30
2018-06-25T09:17:32.149Z,16.30
2018-06-25T09:20:01.245Z,16.20
2018-06-25T09:24:58.885Z,16.10
2018-06-25T09:27:28.578Z,16.10
2018-06-25T09:29:57.613Z,16.10
2018-06-25T09:32:26.285Z,16.10
2018-06-25T09:34:54.912Z,16.10
2018-06-25T09:37:24.016Z,16.10
2018-06-25T09:39:52.617Z,16.10
2018-06-25T09:42:21.412Z,16.10
2018-06-25T09:44:51.429Z,16.20
2018-06-25T09:47:20.249Z,16.20
2018-06-25T09:49:48.944Z,16.20
2018-06-25T09:52:17.761Z,16.20
2018-06-25T09:54:46.762Z,16.30
2018-06-25T09:57:15.457Z,16.30
2018-06-25T09:59:45.015Z,16.30
2018-06-25T10:02:13.610Z,16.30
2018-06-25T10:04:42.267Z,16.30
2018-06-25T10:07:10.695Z,16.40
2018-06-25T10:09:39.231Z,16.50
2018-06-25T10:12:08.056Z,16.50
2018-06-25T10:14:36.581Z,16.50
2018-06-25T10:17:05.049Z,16.50
2018-06-25T10:19:33.757Z,16.50
2018-06-25T10:22:02.164Z,16.60
2018-06-25T10:24:30.580Z,16.70
2018-06-25T10:26:59.099Z,16.80
2018-06-25T10:29:27.509Z,16.80
2018-06-25T10:31:56.136Z,16.90
2018-06-25T10:34:24.578Z,16.90
2018-06-25T10:36:53.000Z,16.90
2018-06-25T10:39:21.520Z,17.00
2018-06-25T10:41:50.121Z,17.00
2018-06-25T10:46:46.837Z,17.20
2018-06-25T10:49:15.251Z,17.30
2018-06-25T10:51:43.684Z,17.40
2018-06-25T10:54:12.651Z,17.60
2018-06-25T10:56:41.049Z,17.70
2018-06-25T10:59:09.494Z,17.70
2018-06-25T11:01:38.315Z,17.70
2018-06-25T11:04:06.952Z,17.80
2018-06-25T11:06:35.371Z,17.80
2018-06-25T11:09:04.808Z,17.70
2018-06-25T11:11:33.312Z,17.80
2018-06-25T11:14:02.522Z,17.90
2018-06-25T11:16:31.361Z,18.00
2018-06-25T11:18:59.741Z,18.00
2018-06-25T11:21:28.199Z,18.10
2018-06-25T11:23:56.824Z,18.10
2018-06-25T11:26:25.194Z,18.20
2018-06-25T11:28:53.608Z,18.10
2018-06-25T11:31:22.724Z,18.10
2018-06-25T11:33:51.073Z,18.20
2018-06-25T11:36:19.861Z,18.30
2018-06-25T11:38:48.392Z,18.30
2018-06-25T11:41:17.003Z,18.40
2018-06-25T11:43:45.661Z,18.40
2018-06-25T11:46:15.670Z,18.40
2018-06-25T11:48:44.037Z,18.50
2018-06-25T11:51:12.710Z,18.50
2018-06-25T11:53:41.170Z,18.40
2018-06-25T11:56:09.671Z,18.50
2018-06-25T11:58:38.292Z,18.50
2018-06-25T12:01:06.948Z,18.50
2018-06-25T12:03:35.344Z,18.50
2018-06-25T12:08:32.233Z,18.50
2018-06-25T12:11:00.663Z,18.50
2018-06-25T12:13:29.749Z,18.50
2018-06-25T12:15:58.152Z,18.40
2018-06-25T12:18:26.548Z,18.50
2018-06-25T12:20:55.262Z,18.50
2018-06-25T12:25:51.828Z,18.60
2018-06-25T12:28:20.504Z,18.70
2018-06-25T12:30:48.922Z,18.80
2018-06-25T12:33:17.448Z,18.90
2018-06-25T12:35:46.004Z,19.00
2018-06-25T12:38:14.361Z,19.00
2018-06-25T12:40:43.307Z,19.00
2018-06-25T12:43:12.119Z,19.10
2018-06-25T12:45:40.606Z,19.00
2018-06-25T12:48:08.985Z,19.00
2018-06-25T12:50:37.420Z,19.00
2018-06-25T12:55:34.073Z,19.20
2018-06-25T12:58:02.725Z,19.40
2018-06-25T13:00:31.253Z,19.50
2018-06-25T13:02:59.634Z,19.60
2018-06-25T13:05:28.603Z,19.60
2018-06-25T13:07:57.083Z,19.60
2018-06-25T13:10:25.712Z,19.70
2018-06-25T13:12:54.732Z,19.90
2018-06-25T13:15:23.193Z,20.00
2018-06-25T13:17:51.793Z,20.10
2018-06-25T13:20:20.637Z,20.20
2018-06-25T13:22:49.518Z,20.00
2018-06-25T13:25:18.118Z,20.10
2018-06-25T13:27:47.465Z,20.00
2018-06-25T13:30:17.537Z,19.90
2018-06-25T13:35:14.937Z,20.00
2018-06-25T13:37:43.427Z,20.20
2018-06-25T13:40:12.219Z,20.20
2018-06-25T13:42:40.892Z,20.30
2018-06-25T13:45:09.660Z,20.30
2018-06-25T13:47:38.466Z,20.20
2018-06-25T13:50:07.948Z,20.10
2018-06-25T13:52:36.972Z,20.00
2018-06-25T13:55:05.844Z,19.90
2018-06-25T13:57:34.341Z,19.90
2018-06-25T14:00:03.468Z,19.70
2018-06-25T14:02:32.085Z,19.50
2018-06-25T14:05:00.964Z,19.40
2018-06-25T14:07:29.518Z,19.50
2018-06-25T14:09:58.875Z,19.40
2018-06-25T14:12:28.133Z,19.50
2018-06-25T14:14:57.588Z,19.40
2018-06-25T14:17:26.272Z,19.30
2018-06-25T14:19:55.233Z,19.20
2018-06-25T14:22:24.517Z,19.00
2018-06-25T14:24:59.021Z,19.00
2018-06-25T14:27:31.580Z,18.90
2018-06-25T14:30:00.614Z,18.80
2018-06-25T14:32:33.529Z,18.70
2018-06-25T14:35:22.063Z,18.50
2018-06-25T14:37:50.794Z,18.40
2018-06-25T14:40:19.440Z,18.30
2018-06-25T14:42:47.866Z,18.10
2018-06-25T14:45:17.059Z,17.90
2018-06-25T14:47:45.450Z,17.90
2018-06-25T14:50:13.878Z,17.70
2018-06-25T14:52:42.392Z,17.60
2018-06-25T14:55:10.922Z,17.40
2018-06-25T14:57:39.569Z,17.30
2018-06-25T15:00:08.253Z,17.20
2018-06-25T15:02:37.019Z,17.10
2018-06-25T15:05:05.465Z,17.20
2018-06-25T15:07:34.756Z,17.30
2018-06-25T15:10:03.210Z,17.30
2018-06-25T15:17:27.949Z,17.00
2018-06-25T15:19:56.349Z,17.00
2018-06-25T15:22:24.853Z,16.90
2018-06-25T15:24:53.373Z,16.80
2018-06-25T15:27:21.798Z,16.80
2018-06-25T15:29:50.392Z,16.80
2018-06-25T15:32:18.812Z,16.90
2018-06-25T15:34:47.201Z,16.90
2018-06-25T15:37:15.865Z,16.90
2018-06-25T15:39:44.293Z,16.80
2018-06-25T15:42:12.655Z,16.80
2018-06-25T15:44:41.255Z,16.90
2018-06-25T15:47:09.664Z,16.90
2018-06-25T15:49:38.060Z,16.90
2018-06-25T15:52:06.722Z,16.90
2018-06-25T15:54:35.112Z,16.90
2018-06-25T15:57:03.473Z,16.90
2018-06-25T15:59:32.045Z,17.00
2018-06-25T16:02:00.465Z,17.00
2018-06-25T16:04:28.844Z,16.90
2018-06-25T16:06:57.672Z,16.90
2018-06-25T16:11:54.120Z,16.80
2018-06-25T16:14:22.596Z,16.70
2018-06-25T16:16:51.228Z,16.60
2018-06-25T16:19:19.749Z,16.60
2018-06-25T16:21:48.160Z,16.50
2018-06-25T16:24:17.735Z,16.50
2018-06-25T16:26:46.304Z,16.40
2018-06-25T16:31:43.025Z,16.30
2018-06-25T16:34:11.459Z,16.20
2018-06-25T16:36:39.837Z,16.20
2018-06-25T16:39:10.376Z,16.10
2018-06-25T16:41:39.005Z,16.10
2018-06-25T16:44:08.720Z,16.10
2018-06-25T16:46:38.811Z,16.10
2018-06-25T16:49:07.337Z,16.10
2018-06-25T16:54:04.508Z,16.00
2018-06-25T16:56:32.993Z,15.90
2018-06-25T16:59:01.420Z,15.90
2018-06-25T17:01:29.841Z,15.90
2018-06-25T17:03:58.204Z,15.90
2018-06-25T17:06:26.635Z,15.90
2018-06-25T17:08:55.324Z,15.80
2018-06-25T17:11:24.192Z,15.80
2018-06-25T17:13:52.597Z,15.70
2018-06-25T17:16:21.301Z,15.60
2018-06-25T17:18:49.793Z,15.60
2018-06-25T17:21:18.208Z,15.60
2018-06-25T17:23:47.631Z,15.60
2018-06-25T17:26:16.051Z,15.60
2018-06-25T17:28:44.920Z,15.50
2018-06-25T17:31:13.690Z,15.50
2018-06-25T17:33:42.122Z,15.50
2018-06-25T17:36:10.511Z,15.40
2018-06-25T17:38:39.384Z,15.40
2018-06-25T17:41:07.957Z,15.30
2018-06-25T17:43:37.093Z,15.30
2018-06-25T17:46:06.233Z,15.20
2018-06-25T17:48:34.641Z,15.20
2018-06-25T17:51:03.128Z,15.20
2018-06-25T17:53:31.598Z,15.20
2018-06-25T17:56:00.055Z,15.10
2018-06-25T17:58:28.647Z,15.10
2018-06-25T18:00:57.237Z,15.10
2018-06-25T18:03:25.730Z,15.10
2018-06-25T18:08:22.496Z,15.10
2018-06-25T18:10:50.973Z,15.10
2018-06-25T18:13:19.354Z,15.00
2018-06-25T18:18:16.224Z,15.00
2018-06-25T18:20:44.909Z,15.00
2018-06-25T18:23:13.364Z,15.00
2018-06-25T18:28:09.883Z,15.00
2018-06-25T18:30:38.326Z,15.00
2018-06-25T18:35:35.120Z,14.90
2018-06-25T18:38:03.581Z,15.00
2018-06-25T18:40:32.184Z,14.90
2018-06-25T18:43:00.565Z,14.90
2018-06-25T18:45:29.202Z,14.80
2018-06-25T18:47:57.797Z,14.80
2018-06-25T18:50:26.260Z,14.70
2018-06-25T18:52:54.764Z,14.70
2018-06-25T18:55:23.244Z,14.70
2018-06-25T19:00:19.909Z,14.70
2018-06-25T19:02:48.372Z,14.70
2018-06-25T19:05:16.841Z,14.70
2018-06-25T19:07:45.206Z,14.70
2018-06-25T19:10:13.651Z,14.70
2018-06-25T19:12:42.298Z,14.70
2018-06-25T19:17:38.961Z,14.60
2018-06-25T19:20:07.389Z,14.60
2018-06-25T19:22:35.849Z,14.60
2018-06-25T19:25:04.264Z,14.60
2018-06-25T19:27:32.987Z,14.60
2018-06-25T19:30:01.555Z,14.60
2018-06-25T19:32:29.992Z,14.50
2018-06-25T19:34:58.616Z,14.50
2018-06-25T19:37:27.037Z,14.60
2018-06-25T19:39:55.428Z,14.50
2018-06-25T19:42:24.018Z,14.60
2018-06-25T19:44:52.406Z,14.50
2018-06-25T19:47:20.789Z,14.50
2018-06-25T19:49:50.301Z,14.50
2018-06-25T19:54:47.756Z,14.50
2018-06-25T19:57:17.357Z,14.50
2018-06-25T19:59:45.774Z,14.40
2018-06-25T20:02:14.233Z,14.40
2018-06-25T20:04:42.843Z,14.40
2018-06-25T20:07:11.358Z,14.40
2018-06-25T20:09:39.812Z,14.40
2018-06-25T20:12:08.425Z,14.40
2018-06-25T20:14:37.317Z,14.30
2018-06-25T20:17:05.985Z,14.30
2018-06-25T20:19:34.641Z,14.30
2018-06-25T20:22:03.077Z,14.30
2018-06-25T20:24:31.433Z,14.30
2018-06-25T20:27:00.045Z,14.30
2018-06-25T20:31:56.581Z,14.30
2018-06-25T20:34:25.685Z,14.30
2018-06-25T20:36:54.548Z,14.30
2018-06-25T20:39:23.361Z,14.30
2018-06-25T20:44:21.188Z,14.30
2018-06-25T20:51:47.184Z,14.30
2018-06-25T20:54:15.692Z,14.30
2018-06-25T20:56:44.159Z,14.30
2018-06-25T20:59:12.640Z,14.30
2018-06-25T21:01:41.078Z,14.20
2018-06-25T21:04:09.564Z,14.20
2018-06-25T21:06:38.032Z,14.30
2018-06-25T21:09:08.883Z,14.30
2018-06-25T21:11:37.371Z,14.30
2018-06-25T21:14:06.053Z,14.30
2018-06-25T21:16:34.864Z,14.30
2018-06-25T21:19:03.357Z,14.30
2018-06-25T21:21:31.793Z,14.20
2018-06-25T21:24:00.467Z,14.20
2018-06-25T21:26:28.907Z,14.20
2018-06-25T21:28:57.300Z,14.30
2018-06-25T21:33:54.000Z,14.20
2018-06-25T21:36:22.372Z,14.20
2018-06-25T21:38:50.900Z,14.20
2018-06-25T21:41:19.575Z,14.20
2018-06-25T21:43:47.976Z,14.20
2018-06-25T21:46:16.364Z,14.20
2018-06-25T21:51:13.308Z,14.10
2018-06-25T21:53:41.726Z,14.10
2018-06-25T21:56:10.177Z,14.10
2018-06-25T21:58:38.703Z,14.10
2018-06-25T22:01:07.227Z,14.10
2018-06-25T22:03:35.662Z,14.10
2018-06-25T22:06:04.419Z,14.10
2018-06-25T22:08:32.876Z,14.10
2018-06-25T22:11:01.298Z,14.10
2018-06-25T22:13:29.925Z,14.10
2018-06-25T22:15:58.312Z,14.10
2018-06-25T22:18:26.677Z,14.10
2018-06-25T22:20:55.311Z,14.10
2018-06-25T22:23:23.703Z,14.00
2018-06-25T22:25:52.160Z,14.10
2018-06-25T22:28:21.064Z,14.10
2018-06-25T22:30:49.673Z,14.10
2018-06-25T22:33:18.061Z,14.10
2018-06-25T22:35:46.453Z,14.00
2018-06-25T22:38:15.053Z,14.00
2018-06-25T22:40:43.456Z,14.00
2018-06-25T22:43:11.812Z,14.00
2018-06-25T22:45:40.225Z,14.00
2018-06-25T22:48:08.630Z,14.00
2018-06-25T22:50:37.089Z,14.00
2018-06-25T22:53:05.548Z,14.00
2018-06-25T22:58:04.957Z,13.90
2018-06-25T23:00:33.891Z,13.90
2018-06-25T23:03:02.559Z,13.90
2018-06-25T23:05:30.953Z,13.90
2018-06-25T23:07:59.328Z,13.90
2018-06-25T23:10:27.705Z,13.90
2018-06-25T23:12:56.282Z,13.90
2018-06-25T23:15:24.909Z,13.90
2018-06-25T23:17:53.320Z,13.90
2018-06-25T23:20:21.788Z,13.90
2018-06-25T23:22:56.092Z,13.90
2018-06-25T23:25:25.019Z,13.90
2018-06-25T23:27:53.817Z,13.90
2018-06-25T23:30:22.695Z,13.90
2018-06-25T23:32:51.372Z,13.80
2018-06-25T23:35:19.992Z,13.80
2018-06-25T23:37:48.437Z,13.80
2018-06-25T23:40:16.824Z,13.80
2018-06-25T23:42:45.247Z,13.80
2018-06-25T23:45:13.885Z,13.80
2018-06-25T23:47:42.348Z,13.70
2018-06-25T23:52:38.869Z,13.70
2018-06-25T23:55:07.248Z,13.70
2018-06-25T23:57:35.653Z,13.70
